PAWM

Details ICAO PAWM (WMO)
Name White Mountain
Region USA (Alaska)
Timezone America/Nome (UTC-9.0)
Plans Departing 0
Arriving 1
Stats Elevation 261 ft / 80 m (AMSL)
Location 64.689194° -163.412556°
Runways 1
Magnetic Variation 11.015° E
Sunrise 2017-12-15 20:53:53 UTC / 2017-12-15 11:53:53 Local
Sunset 2017-12-16 00:46:56 UTC / 2017-12-15 15:46:56 Local
Advertisement - Login to hide

Runways

ID Width Length Bearing (true) Bearing (mag) Surface Threshold Offset Overrun Length
15 59 ft / 18 m 3,003 ft / 915 m 164.00° 152.99° Gravel 0 ft / 0 m 0 ft / 0 m
33 59 ft / 18 m 3,003 ft / 915 m 344.00° 332.99° Gravel 0 ft / 0 m 0 ft / 0 m

Map

Weather


0- 5 10 15 20 25 30 35+ Temperature / ° C

Clouds and Precipitation
Forecast for 2017-12-15 18:00 UTC. Updated an hour ago

Ground ~20,000 ft ~40,000 ft Winds

METAR

PAWM 151756Z AUTO 36010KT 10SM CLR M09/M10 A2940 RMK AO2 SLP962 T10891100 11072 21089 58028 FZRANO

TAF

Not found

Frequencies

Recorded 121.45 MHz AWOS-3
Unicom 122.90 MHz CTAF
Warning: Do not use this data for real-world aviation or navigation. No guarantee of current accuracy is given.